createdAt,value
2023-04-20T00:02:07.790Z,12.53
2023-04-20T00:04:36.699Z,14.60
2023-04-20T00:07:06.672Z,12.87
2023-04-20T00:09:34.620Z,14.87
2023-04-20T00:12:03.158Z,13.03
2023-04-20T00:14:31.390Z,14.43
2023-04-20T00:16:59.681Z,14.30
2023-04-20T00:19:28.473Z,15.43
2023-04-20T00:21:58.070Z,13.50
2023-04-20T00:24:27.379Z,14.70
2023-04-20T00:26:58.684Z,13.03
2023-04-20T00:29:27.192Z,13.70
2023-04-20T00:31:55.172Z,11.30
2023-04-20T00:34:23.652Z,10.23
2023-04-20T00:36:52.024Z,9.73
2023-04-20T00:39:20.010Z,12.53
2023-04-20T00:41:49.867Z,11.30
2023-04-20T00:44:17.845Z,12.37
2023-04-20T00:46:45.877Z,9.80
2023-04-20T00:49:13.951Z,8.90
2023-04-20T00:51:42.831Z,9.00
2023-04-20T00:54:11.716Z,8.97
2023-04-20T00:56:40.170Z,6.90
2023-04-20T00:59:09.574Z,6.77
2023-04-20T01:01:37.802Z,8.43
2023-04-20T01:04:08.042Z,8.63
2023-04-20T01:06:36.320Z,8.67
2023-04-20T01:09:05.090Z,6.20
2023-04-20T01:11:33.278Z,9.50
2023-04-20T01:14:02.279Z,8.47
2023-04-20T01:16:35.133Z,7.67
2023-04-20T01:19:03.475Z,7.67
2023-04-20T01:21:32.585Z,9.37
2023-04-20T01:24:02.318Z,9.43
2023-04-20T01:26:30.421Z,9.00
2023-04-20T01:28:59.168Z,8.00
2023-04-20T01:31:28.775Z,7.23
2023-04-20T01:33:56.955Z,10.50
2023-04-20T01:36:25.155Z,8.70
2023-04-20T01:38:56.208Z,9.03
2023-04-20T01:41:25.939Z,8.50
2023-04-20T01:43:53.887Z,8.60
2023-04-20T01:46:21.991Z,6.53
2023-04-20T01:48:49.950Z,9.27
2023-04-20T01:51:17.959Z,8.93
2023-04-20T01:53:46.079Z,7.40
2023-04-20T01:56:14.063Z,8.13
2023-04-20T01:58:43.718Z,9.77
2023-04-20T02:01:11.699Z,8.60
2023-04-20T02:03:41.118Z,10.33
2023-04-20T02:06:09.476Z,8.70
2023-04-20T02:08:37.627Z,9.30
2023-04-20T02:11:06.619Z,9.20
2023-04-20T02:13:36.512Z,9.40
2023-04-20T02:16:07.986Z,8.57
2023-04-20T02:18:37.412Z,9.00
2023-04-20T02:21:06.807Z,10.53
2023-04-20T02:23:35.381Z,8.97
2023-04-20T02:26:03.330Z,9.20
2023-04-20T02:28:31.736Z,12.10
2023-04-20T02:31:00.134Z,12.13
2023-04-20T02:33:29.820Z,9.50
2023-04-20T02:35:57.930Z,9.50
2023-04-20T02:38:26.907Z,9.57
2023-04-20T02:40:54.809Z,8.17
2023-04-20T02:43:22.954Z,6.67
2023-04-20T02:45:50.995Z,9.00
2023-04-20T02:48:19.552Z,8.90
2023-04-20T02:50:49.180Z,12.30
2023-04-20T02:53:20.176Z,8.33
2023-04-20T02:55:48.185Z,9.90
2023-04-20T02:58:17.877Z,9.53
2023-04-20T03:00:46.032Z,9.00
2023-04-20T03:03:15.474Z,8.00
2023-04-20T03:05:44.048Z,9.77
2023-04-20T03:08:13.953Z,7.63
2023-04-20T03:10:42.385Z,8.87
2023-04-20T03:13:10.915Z,8.90
2023-04-20T03:15:39.293Z,8.53
2023-04-20T03:18:07.387Z,8.10
2023-04-20T03:20:35.936Z,11.93
2023-04-20T03:23:03.959Z,13.33
2023-04-20T03:25:33.705Z,10.27
2023-04-20T03:28:01.958Z,8.77
2023-04-20T03:30:30.312Z,10.17
2023-04-20T03:32:58.249Z,9.53
2023-04-20T03:35:27.173Z,10.53
2023-04-20T03:37:55.748Z,9.30
2023-04-20T03:40:24.051Z,9.50
2023-04-20T03:42:53.692Z,9.53
2023-04-20T03:45:21.892Z,10.73
2023-04-20T03:47:51.569Z,11.03
2023-04-20T03:50:20.032Z,9.67
2023-04-20T03:52:48.026Z,9.77
2023-04-20T03:55:16.224Z,10.00
2023-04-20T03:57:44.152Z,8.63
2023-04-20T04:00:14.771Z,9.67
2023-04-20T04:02:42.884Z,11.27
2023-04-20T04:05:11.193Z,11.50
2023-04-20T04:07:40.221Z,11.03
2023-04-20T04:10:10.046Z,10.40
2023-04-20T04:12:38.047Z,12.43
2023-04-20T04:15:07.039Z,11.00
2023-04-20T04:17:36.386Z,10.23
2023-04-20T04:20:05.789Z,12.07
2023-04-20T04:22:33.719Z,11.27
2023-04-20T04:25:03.571Z,11.70
2023-04-20T04:27:34.985Z,11.77
2023-04-20T04:30:04.872Z,17.80
2023-04-20T04:32:34.640Z,17.90
2023-04-20T04:35:06.103Z,11.90
2023-04-20T04:37:34.113Z,13.67
2023-04-20T04:40:03.822Z,11.47
2023-04-20T04:42:32.755Z,14.20
2023-04-20T04:45:02.168Z,12.27
2023-04-20T04:47:31.001Z,12.93
2023-04-20T04:50:01.088Z,12.77
2023-04-20T04:52:31.304Z,11.93
2023-04-20T04:54:59.761Z,10.93
2023-04-20T04:57:28.021Z,10.83
2023-04-20T04:59:56.257Z,13.07
2023-04-20T05:02:24.584Z,10.23
2023-04-20T05:04:52.882Z,14.03
2023-04-20T05:07:21.444Z,11.10
2023-04-20T05:09:50.833Z,12.57
2023-04-20T05:12:19.673Z,12.43
2023-04-20T05:14:48.053Z,12.87
2023-04-20T05:17:16.455Z,14.97
2023-04-20T05:19:44.554Z,11.50
2023-04-20T05:22:12.845Z,11.73
2023-04-20T05:24:41.324Z,11.20
2023-04-20T05:27:12.189Z,11.70
2023-04-20T05:29:40.528Z,12.23
2023-04-20T05:32:08.605Z,10.77
2023-04-20T05:34:36.755Z,14.17
2023-04-20T05:37:06.329Z,11.43
2023-04-20T05:39:34.322Z,14.43
2023-04-20T05:42:02.401Z,12.23
2023-04-20T05:44:34.214Z,10.33
2023-04-20T05:47:02.248Z,12.17
2023-04-20T05:49:30.232Z,14.50
2023-04-20T05:51:58.197Z,12.70
2023-04-20T05:54:28.488Z,11.47
2023-04-20T05:56:58.319Z,13.70
2023-04-20T05:59:27.503Z,14.43
2023-04-20T06:01:57.021Z,11.93
2023-04-20T06:04:26.230Z,11.30
2023-04-20T06:06:54.421Z,11.97
2023-04-20T06:09:23.621Z,12.93
2023-04-20T06:11:51.608Z,13.77
2023-04-20T06:14:19.995Z,12.10
2023-04-20T06:16:48.482Z,14.77
2023-04-20T06:19:18.184Z,11.13
2023-04-20T06:21:46.674Z,10.07
2023-04-20T06:24:15.909Z,11.40
2023-04-20T06:26:44.262Z,12.63
2023-04-20T06:29:12.291Z,11.97
2023-04-20T06:31:40.304Z,13.03
2023-04-20T06:34:08.378Z,14.00
2023-04-20T06:36:38.773Z,10.23
2023-04-20T06:39:09.581Z,16.13
2023-04-20T06:41:38.325Z,14.23
2023-04-20T06:44:06.640Z,14.27
2023-04-20T06:46:34.606Z,14.77
2023-04-20T06:49:03.472Z,14.20
2023-04-20T06:51:33.381Z,12.47
2023-04-20T06:54:03.148Z,11.90
2023-04-20T06:56:31.076Z,13.93
2023-04-20T06:58:59.483Z,14.80
2023-04-20T07:01:27.493Z,15.67
2023-04-20T07:03:55.741Z,14.73
2023-04-20T07:06:25.285Z,13.97
2023-04-20T07:08:53.539Z,13.80
2023-04-20T07:11:23.063Z,12.50
2023-04-20T07:13:51.334Z,15.53
2023-04-20T07:16:19.403Z,14.23
2023-04-20T07:18:47.481Z,17.43
2023-04-20T07:21:16.364Z,13.70
2023-04-20T07:23:45.235Z,12.47
2023-04-20T07:26:13.720Z,13.60
2023-04-20T07:28:43.259Z,16.10
2023-04-20T07:31:12.481Z,15.57
2023-04-20T07:33:40.688Z,12.13
2023-04-20T07:36:09.307Z,16.17
2023-04-20T07:38:37.705Z,19.90
2023-04-20T07:41:05.721Z,15.63
2023-04-20T07:43:33.922Z,13.93
2023-04-20T07:46:03.665Z,14.10
2023-04-20T07:48:32.003Z,18.27
2023-04-20T07:50:59.978Z,11.50
2023-04-20T07:53:28.356Z,13.73
2023-04-20T07:55:59.293Z,13.97
2023-04-20T07:58:27.702Z,14.33
2023-04-20T08:00:55.869Z,14.50
2023-04-20T08:03:27.634Z,11.27
2023-04-20T08:05:55.905Z,15.80
2023-04-20T08:08:24.378Z,12.97
2023-04-20T08:10:52.421Z,9.87
2023-04-20T08:13:21.187Z,12.63
2023-04-20T08:15:49.472Z,11.73
2023-04-20T08:18:18.099Z,11.63
2023-04-20T08:20:48.126Z,11.13
2023-04-20T08:23:16.223Z,9.20
2023-04-20T08:25:44.455Z,10.43
2023-04-20T08:28:24.318Z,11.27
2023-04-20T08:31:00.830Z,10.27
2023-04-20T08:33:28.952Z,11.07
2023-04-20T08:35:58.307Z,10.20
2023-04-20T08:38:33.671Z,10.73
2023-04-20T08:41:02.487Z,10.40
2023-04-20T08:43:32.638Z,11.83
2023-04-20T08:46:03.129Z,10.90
2023-04-20T08:48:36.442Z,15.17
2023-04-20T08:51:07.409Z,9.33
2023-04-20T08:53:35.549Z,12.07
2023-04-20T08:56:03.839Z,9.37
2023-04-20T08:58:33.435Z,9.97
2023-04-20T09:01:01.859Z,11.27
2023-04-20T09:03:35.711Z,12.43
2023-04-20T09:06:06.588Z,12.73
2023-04-20T09:08:36.787Z,18.57
2023-04-20T09:11:04.662Z,9.90
2023-04-20T09:13:32.647Z,10.37
2023-04-20T09:16:11.616Z,11.73
2023-04-20T09:18:39.799Z,11.60
2023-04-20T09:21:12.593Z,11.97
2023-04-20T09:23:41.906Z,12.13
2023-04-20T09:26:20.883Z,11.33
2023-04-20T09:28:48.820Z,14.83
2023-04-20T09:31:20.535Z,10.17
2023-04-20T09:33:57.892Z,9.40
2023-04-20T09:36:38.147Z,11.30
2023-04-20T09:39:09.796Z,13.83
2023-04-20T09:41:38.751Z,15.23
2023-04-20T09:44:08.587Z,10.17
2023-04-20T09:46:37.531Z,13.77
2023-04-20T09:49:07.817Z,13.87
2023-04-20T09:51:38.621Z,11.13
2023-04-20T09:54:07.974Z,14.13
2023-04-20T09:56:36.888Z,14.43
2023-04-20T09:59:05.088Z,10.77
2023-04-20T10:01:36.101Z,11.47
2023-04-20T10:04:11.294Z,12.50
2023-04-20T10:06:41.787Z,9.93
2023-04-20T10:09:11.215Z,10.33
2023-04-20T10:11:52.592Z,11.40
2023-04-20T10:14:27.422Z,13.33
2023-04-20T10:17:03.307Z,11.70
2023-04-20T10:19:41.969Z,13.00
2023-04-20T10:22:12.664Z,10.97
2023-04-20T10:24:40.610Z,9.87
2023-04-20T10:27:18.649Z,13.40
2023-04-20T10:29:47.325Z,10.73
2023-04-20T10:32:24.267Z,10.43
2023-04-20T10:35:02.781Z,11.93
2023-04-20T10:37:32.918Z,10.17
2023-04-20T10:40:01.614Z,8.97
2023-04-20T10:42:30.872Z,9.97
2023-04-20T10:44:59.269Z,9.30
2023-04-20T10:47:31.910Z,11.37
2023-04-20T10:50:11.114Z,9.27
2023-04-20T10:52:42.904Z,8.90
2023-04-20T10:55:20.838Z,8.60
2023-04-20T10:57:48.881Z,21.97
2023-04-20T11:00:18.900Z,12.60
2023-04-20T11:02:51.406Z,13.33
2023-04-20T11:05:20.434Z,7.70
2023-04-20T11:07:53.001Z,8.03
2023-04-20T11:10:21.397Z,7.87
2023-04-20T11:12:49.484Z,8.30
2023-04-20T11:15:17.868Z,8.93
2023-04-20T11:17:47.059Z,8.07
2023-04-20T11:20:17.770Z,7.50
2023-04-20T11:22:45.984Z,7.47
2023-04-20T11:25:15.681Z,7.17
2023-04-20T11:27:43.834Z,7.43
2023-04-20T11:30:12.642Z,8.03
2023-04-20T11:32:40.915Z,7.73
2023-04-20T11:35:12.160Z,9.70
2023-04-20T11:37:48.018Z,8.53
2023-04-20T11:40:17.681Z,7.63
2023-04-20T11:42:46.341Z,8.97
2023-04-20T11:45:16.004Z,8.80
2023-04-20T11:47:45.791Z,7.37
2023-04-20T11:50:14.506Z,8.20
2023-04-20T11:52:42.533Z,7.43
2023-04-20T11:55:11.427Z,7.77
2023-04-20T11:57:40.817Z,7.80
2023-04-20T12:00:10.171Z,8.90
2023-04-20T12:02:38.292Z,6.37
2023-04-20T12:05:08.887Z,6.97
2023-04-20T12:07:37.014Z,8.43
2023-04-20T12:10:05.481Z,6.90
2023-04-20T12:12:34.075Z,6.23
2023-04-20T12:15:03.350Z,6.37
2023-04-20T12:17:31.655Z,8.40
2023-04-20T12:19:59.545Z,6.50
2023-04-20T12:22:27.634Z,6.67
2023-04-20T12:24:55.721Z,6.93
2023-04-20T12:27:23.734Z,7.43
2023-04-20T12:29:51.644Z,7.40
2023-04-20T12:32:21.205Z,6.23
2023-04-20T12:34:49.287Z,9.93
2023-04-20T12:37:17.934Z,7.87
2023-04-20T12:39:46.490Z,9.10
2023-04-20T12:42:14.558Z,6.50
2023-04-20T12:44:44.404Z,9.13
2023-04-20T12:47:13.750Z,11.20
2023-04-20T12:49:43.911Z,10.37
2023-04-20T12:52:12.130Z,6.87
2023-04-20T12:54:42.110Z,8.73
2023-04-20T12:57:11.371Z,6.40
2023-04-20T12:59:39.361Z,10.20
2023-04-20T13:02:07.838Z,6.23
2023-04-20T13:04:36.486Z,6.63
2023-04-20T13:07:07.132Z,5.93
2023-04-20T13:09:35.151Z,6.57
2023-04-20T13:12:03.260Z,5.27
2023-04-20T13:14:31.239Z,4.47
2023-04-20T13:17:02.289Z,5.50
2023-04-20T13:19:30.790Z,4.63
2023-04-20T13:21:59.519Z,5.77
2023-04-20T13:24:28.980Z,5.30
2023-04-20T13:26:57.871Z,7.90
2023-04-20T13:29:26.797Z,8.03
2023-04-20T13:31:54.901Z,7.73
2023-04-20T13:34:23.225Z,7.43
2023-04-20T13:36:52.117Z,6.60
2023-04-20T13:39:22.220Z,6.37
2023-04-20T13:41:53.263Z,6.57
2023-04-20T13:44:21.418Z,5.10
2023-04-20T13:46:49.947Z,6.37
2023-04-20T13:49:18.208Z,6.53
2023-04-20T13:51:46.434Z,5.70
2023-04-20T13:54:14.369Z,8.77
2023-04-20T13:56:42.360Z,7.80
2023-04-20T13:59:11.711Z,6.23
2023-04-20T14:01:40.172Z,6.57
2023-04-20T14:04:10.109Z,7.37
2023-04-20T14:06:38.174Z,6.23
2023-04-20T14:09:06.340Z,5.63
2023-04-20T14:11:34.403Z,5.20
2023-04-20T14:14:02.742Z,4.97
2023-04-20T14:16:32.360Z,5.73
2023-04-20T14:19:01.825Z,6.63
2023-04-20T14:21:31.394Z,4.73
2023-04-20T14:23:59.662Z,5.83
2023-04-20T14:26:28.501Z,4.87
2023-04-20T14:28:56.470Z,5.33
2023-04-20T14:31:24.720Z,5.03
2023-04-20T14:33:54.190Z,4.40
2023-04-20T14:36:22.254Z,5.37
2023-04-20T14:38:50.685Z,4.63
2023-04-20T14:41:18.610Z,4.93
2023-04-20T14:43:46.882Z,5.67
2023-04-20T14:46:15.205Z,5.43
2023-04-20T14:48:46.333Z,5.07
2023-04-20T14:51:16.399Z,8.87
2023-04-20T14:53:44.326Z,4.20
2023-04-20T14:56:12.901Z,3.53
2023-04-20T14:58:42.561Z,5.07
2023-04-20T15:01:11.310Z,3.90
2023-04-20T15:03:39.383Z,4.60
2023-04-20T15:06:08.633Z,5.20
2023-04-20T15:08:37.905Z,4.60
2023-04-20T15:11:05.944Z,4.60
2023-04-20T15:13:34.235Z,3.70
2023-04-20T15:16:02.531Z,5.63
2023-04-20T15:18:30.547Z,5.07
2023-04-20T15:20:58.982Z,5.17
2023-04-20T15:23:26.876Z,4.77
2023-04-20T15:25:56.325Z,6.90
2023-04-20T15:28:24.546Z,7.03
2023-04-20T15:30:54.215Z,5.20
2023-04-20T15:33:22.498Z,4.83
2023-04-20T15:35:51.805Z,5.43
2023-04-20T15:38:20.063Z,5.27
2023-04-20T15:40:47.973Z,5.90
2023-04-20T15:43:17.479Z,6.30
2023-04-20T15:45:45.550Z,9.63
2023-04-20T15:48:14.116Z,6.10
2023-04-20T15:50:42.244Z,9.40
2023-04-20T15:53:10.267Z,7.37
2023-04-20T15:55:39.702Z,4.90
2023-04-20T15:58:07.939Z,4.60
2023-04-20T16:00:37.426Z,5.27
2023-04-20T16:03:05.872Z,6.73
2023-04-20T16:05:34.395Z,7.53
2023-04-20T16:08:02.732Z,5.57
2023-04-20T16:10:30.940Z,5.47
2023-04-20T16:12:59.076Z,5.20
2023-04-20T16:15:27.151Z,5.30
2023-04-20T16:17:56.717Z,5.47
2023-04-20T16:20:24.701Z,7.00
2023-04-20T16:22:52.711Z,5.80
2023-04-20T16:25:24.221Z,6.17
2023-04-20T16:27:52.667Z,5.97
2023-04-20T16:30:21.106Z,7.30
2023-04-20T16:32:50.065Z,6.67
2023-04-20T16:35:19.427Z,7.00
2023-04-20T16:37:49.030Z,5.53
2023-04-20T16:40:17.177Z,5.20
2023-04-20T16:42:45.047Z,6.40
2023-04-20T16:45:13.477Z,5.70
2023-04-20T16:47:41.639Z,7.53
2023-04-20T16:50:11.914Z,7.20
2023-04-20T16:52:41.276Z,6.73
2023-04-20T16:55:10.390Z,6.40
2023-04-20T16:57:38.275Z,5.90
2023-04-20T17:00:07.826Z,7.07
2023-04-20T17:02:37.242Z,6.07
2023-04-20T17:05:05.954Z,8.67
2023-04-20T17:07:36.427Z,7.33
2023-04-20T17:10:07.331Z,8.17
2023-04-20T17:12:35.901Z,6.17
2023-04-20T17:15:04.041Z,10.60
2023-04-20T17:17:32.894Z,7.57
2023-04-20T17:20:00.920Z,10.37
2023-04-20T17:22:29.448Z,7.10
2023-04-20T17:24:57.693Z,6.93
2023-04-20T17:27:27.119Z,5.57
2023-04-20T17:29:56.027Z,8.17
2023-04-20T17:32:25.295Z,8.50
2023-04-20T17:34:53.993Z,8.77
2023-04-20T17:37:23.505Z,5.80
2023-04-20T17:39:51.907Z,7.93
2023-04-20T17:42:22.125Z,6.60
2023-04-20T17:44:52.403Z,8.53
2023-04-20T17:47:20.323Z,7.03
2023-04-20T17:49:48.551Z,6.77
2023-04-20T17:52:19.771Z,7.57
2023-04-20T17:54:47.823Z,15.23
2023-04-20T17:57:15.697Z,8.83
2023-04-20T17:59:43.779Z,11.00
2023-04-20T18:02:14.178Z,8.00
2023-04-20T18:04:42.530Z,8.93
2023-04-20T18:07:13.328Z,8.57
2023-04-20T18:09:41.455Z,8.93
2023-04-20T18:12:10.985Z,9.90
2023-04-20T18:14:38.967Z,13.67
2023-04-20T18:17:06.995Z,7.63
2023-04-20T18:19:36.671Z,7.20
2023-04-20T18:22:04.705Z,6.37
2023-04-20T18:24:32.673Z,8.00
2023-04-20T18:27:01.322Z,7.63
2023-04-20T18:29:30.121Z,9.00
2023-04-20T18:32:01.402Z,7.67
2023-04-20T18:34:31.229Z,8.43
2023-04-20T18:37:01.185Z,8.17
2023-04-20T18:39:29.889Z,10.03
2023-04-20T18:41:59.100Z,7.37
2023-04-20T18:44:28.436Z,8.93
2023-04-20T18:46:56.592Z,13.33
2023-04-20T18:49:24.625Z,13.50
2023-04-20T18:51:52.649Z,12.80
2023-04-20T18:54:21.977Z,15.60
2023-04-20T18:56:50.587Z,13.90
2023-04-20T18:59:18.791Z,13.00
2023-04-20T19:01:46.714Z,13.67
2023-04-20T19:04:17.899Z,11.57
2023-04-20T19:06:46.896Z,12.10
2023-04-20T19:09:14.950Z,13.70
2023-04-20T19:11:44.432Z,13.27
2023-04-20T19:14:13.206Z,12.10
2023-04-20T19:16:41.400Z,18.70
2023-04-20T19:19:10.092Z,15.40
2023-04-20T19:21:38.180Z,11.80
2023-04-20T19:24:07.597Z,19.50
2023-04-20T19:26:36.870Z,17.50
2023-04-20T19:29:06.248Z,21.10
2023-04-20T19:31:37.869Z,19.10
2023-04-20T19:34:06.026Z,19.90
2023-04-20T19:36:34.740Z,24.90
2023-04-20T19:39:03.109Z,22.27
2023-04-20T19:41:31.373Z,22.97
2023-04-20T19:44:01.170Z,24.47
2023-04-20T19:46:31.849Z,21.57
2023-04-20T19:49:00.768Z,24.03
2023-04-20T19:51:29.050Z,16.27
2023-04-20T19:54:00.150Z,18.67
2023-04-20T19:56:28.535Z,15.83
2023-04-20T19:58:56.484Z,16.20
2023-04-20T20:01:24.353Z,16.53
2023-04-20T20:03:54.149Z,26.33
2023-04-20T20:06:23.707Z,18.30
2023-04-20T20:08:51.720Z,23.30
2023-04-20T20:11:19.797Z,21.40
2023-04-20T20:13:47.709Z,15.87
2023-04-20T20:16:16.285Z,16.40
2023-04-20T20:18:45.082Z,14.73
2023-04-20T20:21:14.494Z,14.80
2023-04-20T20:23:42.698Z,16.30
2023-04-20T20:26:10.813Z,12.47
2023-04-20T20:28:39.226Z,12.87
2023-04-20T20:31:07.511Z,14.43
2023-04-20T20:33:35.760Z,13.93
2023-04-20T20:36:04.443Z,15.77
2023-04-20T20:38:34.762Z,17.20
2023-04-20T20:41:02.929Z,14.93
2023-04-20T20:43:32.766Z,17.30
2023-04-20T20:46:00.833Z,21.07
2023-04-20T20:48:28.867Z,16.97
2023-04-20T20:50:56.747Z,21.07
2023-04-20T20:53:25.004Z,20.57
2023-04-20T20:55:54.812Z,23.33
2023-04-20T20:58:23.130Z,20.50
2023-04-20T21:00:51.347Z,22.37
2023-04-20T21:03:19.691Z,20.67
2023-04-20T21:05:47.964Z,18.20
2023-04-20T21:08:17.387Z,19.93
2023-04-20T21:10:45.474Z,19.67
2023-04-20T21:13:15.854Z,18.87
2023-04-20T21:15:43.770Z,19.63
2023-04-20T21:18:12.001Z,18.17
2023-04-20T21:20:40.067Z,19.07
2023-04-20T21:23:07.994Z,19.73
2023-04-20T21:25:36.147Z,19.47
2023-04-20T21:28:04.422Z,20.07
2023-04-20T21:30:34.155Z,20.53
2023-04-20T21:33:02.324Z,18.53
2023-04-20T21:35:31.145Z,21.10
2023-04-20T21:37:59.095Z,18.70
2023-04-20T21:40:27.092Z,17.70
2023-04-20T21:42:55.496Z,20.50
2023-04-20T21:45:23.633Z,20.00
2023-04-20T21:47:54.580Z,18.03
2023-04-20T21:50:27.186Z,20.33
2023-04-20T21:52:55.674Z,18.60
2023-04-20T21:55:23.579Z,20.13
2023-04-20T21:57:51.671Z,21.13
2023-04-20T22:00:19.892Z,20.73
2023-04-20T22:02:50.195Z,18.37
2023-04-20T22:05:20.127Z,19.40
2023-04-20T22:07:48.052Z,17.47
2023-04-20T22:10:16.269Z,20.30
2023-04-20T22:12:46.198Z,19.57
2023-04-20T22:15:16.825Z,23.17
2023-04-20T22:17:46.589Z,20.60
2023-04-20T22:20:16.974Z,19.30
2023-04-20T22:22:46.902Z,21.63
2023-04-20T22:25:14.881Z,23.43
2023-04-20T22:27:42.847Z,23.10
2023-04-20T22:30:11.358Z,21.60
2023-04-20T22:32:39.381Z,20.97
2023-04-20T22:35:08.105Z,23.40
2023-04-20T22:37:36.320Z,24.93
2023-04-20T22:40:07.645Z,20.87
2023-04-20T22:42:36.089Z,21.57
2023-04-20T22:45:06.149Z,25.03
2023-04-20T22:47:34.162Z,22.93
2023-04-20T22:50:02.159Z,22.20
2023-04-20T22:52:30.280Z,22.67
2023-04-20T22:54:58.115Z,24.07
2023-04-20T22:57:27.413Z,26.37
2023-04-20T22:59:55.474Z,21.47
2023-04-20T23:02:23.573Z,27.93
2023-04-20T23:04:51.880Z,23.83
2023-04-20T23:07:21.433Z,26.00
2023-04-20T23:09:49.333Z,23.07
2023-04-20T23:12:17.594Z,24.53
2023-04-20T23:14:47.559Z,23.30
2023-04-20T23:17:15.720Z,24.80
2023-04-20T23:19:43.798Z,26.97
2023-04-20T23:22:12.046Z,20.70
2023-04-20T23:24:40.280Z,24.90
2023-04-20T23:27:08.186Z,25.37
2023-04-20T23:29:36.089Z,22.43
2023-04-20T23:32:06.201Z,24.60
2023-04-20T23:34:34.317Z,25.63
2023-04-20T23:37:02.428Z,21.83
2023-04-20T23:39:30.863Z,22.87
2023-04-20T23:41:58.889Z,22.97
2023-04-20T23:44:27.064Z,21.83
2023-04-20T23:46:55.125Z,21.87
2023-04-20T23:49:24.441Z,19.43
2023-04-20T23:51:52.392Z,19.97
2023-04-20T23:54:20.355Z,19.07
2023-04-20T23:56:48.566Z,25.03
2023-04-20T23:59:17.122Z,20.70
